Time;durP1;ratioP1;P1;durP2;ratioP2;P2;SDS_P1;SDS_P2;PMS_P1;PMS_P2;Temp;Humidity;BMP_temperature;BMP_pressure;BME280_temperature;BME280_humidity;BME280_pressure;Samples;Min_cycle;Max_cycle;Signal;HPM_P1;HPM_P2
2022/06/25 00:00:31;;;;;;;18.98;3.30;;;;;;;;;;5041882;28;20049;-64
2022/06/25 00:02:58;;;;;;;14.88;3.65;;;;;;;;;;5041728;28;20484;-62
2022/06/25 00:05:28;;;;;;;19.05;4.28;;;;;;;;;;5034708;28;20029;-64
2022/06/25 00:07:56;;;;;;;19.30;4.25;;;;;;;;;;5044855;28;20040;-64
2022/06/25 00:10:23;;;;;;;19.02;4.07;;;;;;;;;;5039748;28;20033;-61
2022/06/25 00:12:52;;;;;;;20.75;3.65;;;;;;;;;;5040572;28;20021;-61
2022/06/25 00:15:19;;;;;;;15.40;3.63;;;;;;;;;;5038394;28;20024;-64
2022/06/25 00:17:46;;;;;;;16.77;4.10;;;;;;;;;;5041512;28;20028;-63
2022/06/25 00:20:14;;;;;;;15.02;4.05;;;;;;;;;;5041358;28;20482;-63
2022/06/25 00:22:40;;;;;;;19.77;3.72;;;;;;;;;;5039257;28;20078;-61
2022/06/25 00:25:08;;;;;;;20.50;4.00;;;;;;;;;;5040474;28;20040;-63
2022/06/25 00:27:35;;;;;;;14.90;4.10;;;;;;;;;;5040796;28;20475;-61
2022/06/25 00:30:02;;;;;;;19.60;4.78;;;;;;;;;;5039418;28;20032;-63
2022/06/25 00:32:29;;;;;;;14.80;3.95;;;;;;;;;;5030544;28;20033;-64
2022/06/25 00:34:56;;;;;;;17.73;3.97;;;;;;;;;;5029731;28;20060;-63
2022/06/25 00:37:23;;;;;;;23.35;5.32;;;;;;;;;;5030663;28;20537;-61
2022/06/25 00:39:50;;;;;;;17.92;5.38;;;;;;;;;;5037317;28;20455;-64
2022/06/25 00:42:17;;;;;;;19.58;6.00;;;;;;;;;;5053270;28;20041;-61
2022/06/25 00:44:44;;;;;;;16.50;5.68;;;;;;;;;;5049110;28;20047;-61
2022/06/25 00:47:12;;;;;;;20.42;7.30;;;;;;;;;;5052879;28;20108;-64
2022/06/25 00:49:40;;;;;;;15.00;7.18;;;;;;;;;;5054047;28;20021;-63
2022/06/25 00:52:14;;;;;;;31.25;7.78;;;;;;;;;;5052541;28;20029;-60
2022/06/25 00:54:45;;;;;;;22.80;8.27;;;;;;;;;;5051482;28;20032;-60
2022/06/25 00:57:14;;;;;;;23.23;7.28;;;;;;;;;;5053789;28;20575;-61
2022/06/25 00:59:43;;;;;;;20.65;7.68;;;;;;;;;;5054015;28;20556;-61
2022/06/25 01:02:10;;;;;;;23.40;8.20;;;;;;;;;;5053629;28;20108;-61
2022/06/25 01:04:38;;;;;;;20.35;8.00;;;;;;;;;;5054855;28;20399;-61
2022/06/25 01:07:06;;;;;;;21.38;8.43;;;;;;;;;;5054497;28;20612;-64
2022/06/25 01:09:33;;;;;;;24.67;9.10;;;;;;;;;;5053691;28;20032;-64
2022/06/25 01:12:00;;;;;;;30.88;9.07;;;;;;;;;;5054644;28;20395;-65
2022/06/25 01:14:27;;;;;;;24.67;8.43;;;;;;;;;;5053848;28;20037;-61
2022/06/25 01:16:54;;;;;;;30.75;9.00;;;;;;;;;;5054195;28;20532;-61
2022/06/25 01:19:21;;;;;;;21.63;9.07;;;;;;;;;;5053724;28;20023;-62
2022/06/25 01:21:48;;;;;;;24.23;8.68;;;;;;;;;;5050784;28;20033;-64
2022/06/25 01:24:15;;;;;;;24.10;8.35;;;;;;;;;;5054113;28;20061;-65
2022/06/25 01:26:42;;;;;;;18.23;8.10;;;;;;;;;;5053764;28;20029;-64
2022/06/25 01:29:10;;;;;;;17.58;7.22;;;;;;;;;;5054583;28;20036;-64
2022/06/25 01:31:37;;;;;;;17.75;7.20;;;;;;;;;;5054145;28;20028;-65
2022/06/25 01:34:04;;;;;;;14.48;7.35;;;;;;;;;;5053444;28;20530;-64
2022/06/25 01:36:31;;;;;;;21.58;7.25;;;;;;;;;;5053284;28;20082;-62
2022/06/25 01:38:58;;;;;;;17.90;6.78;;;;;;;;;;5052409;28;20570;-64
2022/06/25 01:41:25;;;;;;;20.35;7.15;;;;;;;;;;5054280;28;20036;-64
2022/06/25 01:43:52;;;;;;;12.85;6.22;;;;;;;;;;5053163;28;20025;-61
2022/06/25 01:46:19;;;;;;;18.63;7.25;;;;;;;;;;5032755;28;20026;-61
2022/06/25 01:48:46;;;;;;;14.43;5.80;;;;;;;;;;5033812;28;20025;-65
2022/06/25 01:51:13;;;;;;;18.77;6.20;;;;;;;;;;5034237;28;20033;-61
2022/06/25 01:53:41;;;;;;;15.20;6.18;;;;;;;;;;5032899;28;20036;-61
2022/06/25 01:56:08;;;;;;;15.15;6.28;;;;;;;;;;5033505;28;20030;-61
2022/06/25 01:58:35;;;;;;;15.82;6.07;;;;;;;;;;5033308;28;20045;-64
2022/06/25 02:01:03;;;;;;;13.40;6.45;;;;;;;;;;5037504;28;20582;-64
2022/06/25 02:03:30;;;;;;;12.88;5.65;;;;;;;;;;5047900;28;20044;-60
2022/06/25 02:05:57;;;;;;;12.32;5.20;;;;;;;;;;5053421;28;20033;-60
2022/06/25 02:08:25;;;;;;;14.35;5.88;;;;;;;;;;5038080;28;20025;-60
2022/06/25 02:10:52;;;;;;;14.68;5.68;;;;;;;;;;5031661;28;20017;-60
2022/06/25 02:13:19;;;;;;;11.70;5.22;;;;;;;;;;5030819;28;20087;-62
2022/06/25 02:15:46;;;;;;;12.07;5.32;;;;;;;;;;5032947;28;20053;-61
2022/06/25 02:18:13;;;;;;;16.70;5.25;;;;;;;;;;5032661;28;20030;-63
2022/06/25 02:20:41;;;;;;;9.85;4.95;;;;;;;;;;5038890;28;20021;-62
2022/06/25 02:23:08;;;;;;;13.38;5.05;;;;;;;;;;5039691;28;20065;-62
2022/06/25 02:25:35;;;;;;;9.40;4.45;;;;;;;;;;5029691;28;20024;-61
2022/06/25 02:28:03;;;;;;;8.82;4.05;;;;;;;;;;5031818;28;20092;-63
2022/06/25 02:30:30;;;;;;;13.68;4.10;;;;;;;;;;5030480;28;20116;-65
2022/06/25 02:32:57;;;;;;;15.43;4.93;;;;;;;;;;5026593;28;20060;-67
2022/06/25 02:35:24;;;;;;;13.85;4.63;;;;;;;;;;5012290;28;20029;-61
2022/06/25 02:37:52;;;;;;;11.23;4.07;;;;;;;;;;5030700;28;20032;-61
2022/06/25 02:40:19;;;;;;;13.55;4.28;;;;;;;;;;5035276;28;20046;-63
2022/06/25 02:42:46;;;;;;;16.83;4.32;;;;;;;;;;5031998;28;20029;-61
2022/06/25 02:45:13;;;;;;;9.93;3.78;;;;;;;;;;5031088;28;20061;-66
2022/06/25 02:47:40;;;;;;;9.27;3.47;;;;;;;;;;5040799;28;20038;-63
2022/06/25 02:50:07;;;;;;;9.80;4.03;;;;;;;;;;5037925;28;20041;-62
2022/06/25 02:52:35;;;;;;;7.65;3.63;;;;;;;;;;5035610;28;20029;-63
2022/06/25 02:55:02;;;;;;;8.45;3.83;;;;;;;;;;5038366;28;20075;-66
2022/06/25 03:00:15;;;;;;;9.23;3.40;;;;;;;;;;5044823;28;20039;-63
2022/06/25 03:02:42;;;;;;;15.27;4.57;;;;;;;;;;5045089;28;20043;-61
2022/06/25 03:05:09;;;;;;;16.05;4.35;;;;;;;;;;5046416;28;20059;-59
2022/06/25 03:07:40;;;;;;;14.75;3.90;;;;;;;;;;5042272;28;20086;-66
2022/06/25 03:10:08;;;;;;;11.85;3.75;;;;;;;;;;5021771;28;20037;-65
2022/06/25 03:12:36;;;;;;;21.08;4.13;;;;;;;;;;5039575;28;20029;-66
2022/06/25 03:15:04;;;;;;;10.32;3.28;;;;;;;;;;5041602;28;20061;-63
2022/06/25 03:17:31;;;;;;;26.08;4.57;;;;;;;;;;5040529;28;20057;-64
2022/06/25 03:19:58;;;;;;;13.85;3.33;;;;;;;;;;5041618;28;20024;-64
2022/06/25 03:22:25;;;;;;;12.10;3.45;;;;;;;;;;5038432;28;20120;-61
2022/06/25 03:24:52;;;;;;;12.68;3.35;;;;;;;;;;5035066;28;20507;-63
2022/06/25 03:27:19;;;;;;;10.38;3.08;;;;;;;;;;5042160;28;20025;-65
2022/06/25 03:29:46;;;;;;;8.40;2.85;;;;;;;;;;5038592;28;20040;-65
2022/06/25 03:32:13;;;;;;;10.15;3.17;;;;;;;;;;5042966;28;20099;-64
2022/06/25 03:34:40;;;;;;;7.82;3.22;;;;;;;;;;5040127;28;20036;-66
2022/06/25 03:37:07;;;;;;;8.82;2.97;;;;;;;;;;5039409;28;20035;-63
2022/06/25 03:39:34;;;;;;;8.40;2.80;;;;;;;;;;5042295;28;20091;-64
2022/06/25 03:42:01;;;;;;;10.82;3.47;;;;;;;;;;5040610;28;20141;-63
2022/06/25 03:44:28;;;;;;;7.88;2.88;;;;;;;;;;5044966;28;20458;-63
2022/06/25 03:46:55;;;;;;;8.80;3.00;;;;;;;;;;5051396;28;20032;-63
2022/06/25 03:49:22;;;;;;;9.98;3.53;;;;;;;;;;5043026;28;20037;-63
2022/06/25 03:51:49;;;;;;;12.32;3.53;;;;;;;;;;5032014;28;20032;-63
2022/06/25 03:54:16;;;;;;;11.18;2.78;;;;;;;;;;5032077;28;20041;-63
2022/06/25 03:56:43;;;;;;;8.93;2.97;;;;;;;;;;5031646;28;20021;-63
2022/06/25 03:59:11;;;;;;;11.95;3.03;;;;;;;;;;5031892;28;20075;-63
2022/06/25 04:01:38;;;;;;;7.65;2.72;;;;;;;;;;5031970;28;20422;-63
2022/06/25 04:04:05;;;;;;;8.80;2.95;;;;;;;;;;5031240;28;20041;-63
2022/06/25 04:06:32;;;;;;;9.73;2.88;;;;;;;;;;5031883;28;20040;-63
2022/06/25 04:08:59;;;;;;;7.25;2.65;;;;;;;;;;5031796;28;20030;-63
2022/06/25 04:11:26;;;;;;;9.80;2.97;;;;;;;;;;5032619;28;20480;-65
2022/06/25 04:17:09;;;;;;;11.07;2.58;;;;;;;;;;5032412;28;20052;-65
2022/06/25 04:19:45;;;;;;;8.60;2.83;;;;;;;;;;5031256;28;20368;-65
2022/06/25 04:22:13;;;;;;;6.90;2.53;;;;;;;;;;5033221;28;20048;-66
2022/06/25 04:24:40;;;;;;;8.02;2.40;;;;;;;;;;5032621;28;20025;-65
2022/06/25 04:29:03;;;;;;;8.25;2.45;;;;;;;;;;5031822;28;20387;-65
2022/06/25 04:29:54;;;;;;;13.25;2.20;;;;;;;;;;5031536;28;20100;-65
2022/06/25 04:32:21;;;;;;;9.20;2.55;;;;;;;;;;5014314;28;20037;-66
2022/06/25 04:34:48;;;;;;;6.53;2.30;;;;;;;;;;5031122;28;20025;-65
2022/06/25 04:37:15;;;;;;;15.20;2.47;;;;;;;;;;5032069;28;20104;-66
2022/06/25 04:39:42;;;;;;;8.30;2.38;;;;;;;;;;5031314;28;20128;-65
2022/06/25 04:42:09;;;;;;;11.88;2.90;;;;;;;;;;5031879;28;20547;-63
2022/06/25 04:44:36;;;;;;;12.13;2.28;;;;;;;;;;5031506;28;20083;-63
2022/06/25 04:47:03;;;;;;;8.57;1.85;;;;;;;;;;5031609;28;20029;-63
2022/06/25 04:49:30;;;;;;;7.78;2.15;;;;;;;;;;5031592;28;20154;-63
2022/06/25 04:51:57;;;;;;;7.18;2.53;;;;;;;;;;5031573;28;20022;-63
2022/06/25 04:54:24;;;;;;;8.20;2.25;;;;;;;;;;5031475;28;20048;-63
2022/06/25 04:56:51;;;;;;;10.35;2.38;;;;;;;;;;5031558;28;20040;-63
2022/06/25 04:59:18;;;;;;;6.50;2.40;;;;;;;;;;5031424;28;20032;-63
2022/06/25 05:01:45;;;;;;;7.35;2.00;;;;;;;;;;5031137;28;20026;-63
2022/06/25 05:04:13;;;;;;;5.75;1.85;;;;;;;;;;5031532;28;20112;-63
2022/06/25 05:06:39;;;;;;;6.00;2.13;;;;;;;;;;5030810;28;20041;-63
2022/06/25 05:09:06;;;;;;;8.75;2.15;;;;;;;;;;5031590;28;20056;-63
2022/06/25 05:11:33;;;;;;;7.70;2.10;;;;;;;;;;5031539;28;20037;-63
2022/06/25 05:14:00;;;;;;;6.40;1.92;;;;;;;;;;5031408;28;20064;-63
2022/06/25 05:16:27;;;;;;;6.38;1.75;;;;;;;;;;5031028;28;20030;-63
2022/06/25 05:18:54;;;;;;;7.57;2.20;;;;;;;;;;5030528;28;20033;-63
2022/06/25 05:21:21;;;;;;;4.40;1.90;;;;;;;;;;5031573;28;20079;-63
2022/06/25 05:23:48;;;;;;;5.90;2.20;;;;;;;;;;5030725;28;20392;-63
2022/06/25 05:26:15;;;;;;;3.70;1.90;;;;;;;;;;5031497;28;20737;-63
2022/06/25 05:28:42;;;;;;;8.23;1.73;;;;;;;;;;5034068;28;20075;-63
2022/06/25 05:31:09;;;;;;;8.52;1.77;;;;;;;;;;5035158;28;20018;-63
2022/06/25 05:33:37;;;;;;;3.95;1.85;;;;;;;;;;5034926;28;20025;-63
2022/06/25 05:36:04;;;;;;;4.72;1.88;;;;;;;;;;5034287;28;20037;-63
2022/06/25 05:38:32;;;;;;;10.43;2.22;;;;;;;;;;5035193;28;20391;-63
2022/06/25 05:40:59;;;;;;;6.03;1.65;;;;;;;;;;5033979;28;20062;-63
2022/06/25 05:43:26;;;;;;;7.35;1.85;;;;;;;;;;5034814;28;20487;-63
2022/06/25 05:45:53;;;;;;;3.17;1.50;;;;;;;;;;5034728;28;20049;-63
2022/06/25 05:48:20;;;;;;;4.13;1.60;;;;;;;;;;5034319;28;20467;-63
2022/06/25 05:50:47;;;;;;;5.93;1.85;;;;;;;;;;5034404;28;20029;-63
2022/06/25 05:53:14;;;;;;;5.47;1.40;;;;;;;;;;5034290;28;20083;-63
2022/06/25 05:55:41;;;;;;;8.85;1.75;;;;;;;;;;5034127;28;20427;-63
2022/06/25 05:58:08;;;;;;;5.30;1.70;;;;;;;;;;5034082;28;20025;-63
2022/06/25 06:00:35;;;;;;;4.60;1.42;;;;;;;;;;5016549;28;20083;-63
2022/06/25 06:03:02;;;;;;;5.78;1.55;;;;;;;;;;5033895;28;20037;-63
2022/06/25 06:05:29;;;;;;;4.97;1.85;;;;;;;;;;5033823;28;20036;-63
2022/06/25 06:07:56;;;;;;;4.25;1.50;;;;;;;;;;5034335;28;20033;-63
2022/06/25 06:10:23;;;;;;;3.28;1.35;;;;;;;;;;5034225;28;20046;-63
2022/06/25 06:12:50;;;;;;;6.78;2.10;;;;;;;;;;5033948;28;20034;-63
2022/06/25 06:15:17;;;;;;;6.30;1.70;;;;;;;;;;5033710;28;20395;-63
2022/06/25 06:17:44;;;;;;;5.35;1.55;;;;;;;;;;5034222;28;20026;-63
2022/06/25 06:20:11;;;;;;;3.78;1.50;;;;;;;;;;5033855;28;20030;-63
2022/06/25 06:22:38;;;;;;;3.83;1.30;;;;;;;;;;5033448;28;20032;-63
2022/06/25 06:25:05;;;;;;;5.07;1.52;;;;;;;;;;5033779;28;20388;-63
2022/06/25 06:27:32;;;;;;;2.63;1.20;;;;;;;;;;5033976;28;20033;-63
2022/06/25 06:29:59;;;;;;;5.13;1.42;;;;;;;;;;5033355;28;20022;-63
2022/06/25 06:32:26;;;;;;;3.60;1.50;;;;;;;;;;5033761;28;20030;-63
2022/06/25 06:34:53;;;;;;;3.67;1.50;;;;;;;;;;5015786;28;20038;-63
2022/06/25 06:37:21;;;;;;;3.40;1.38;;;;;;;;;;5033415;28;20507;-63
2022/06/25 06:39:48;;;;;;;4.00;1.42;;;;;;;;;;5031744;28;20061;-63
2022/06/25 06:42:14;;;;;;;4.20;1.30;;;;;;;;;;5033956;28;20029;-63
2022/06/25 06:44:42;;;;;;;2.10;1.20;;;;;;;;;;5033096;28;20037;-63
2022/06/25 06:47:08;;;;;;;3.53;1.30;;;;;;;;;;5032949;28;20559;-63
2022/06/25 06:49:38;;;;;;;3.80;1.20;;;;;;;;;;5033835;28;20026;-63
2022/06/25 06:52:05;;;;;;;2.83;1.20;;;;;;;;;;5033094;28;20061;-63
2022/06/25 06:54:32;;;;;;;3.85;1.30;;;;;;;;;;5016215;28;20084;-63
2022/06/25 06:56:59;;;;;;;3.95;1.48;;;;;;;;;;5032871;28;20492;-63
2022/06/25 06:59:26;;;;;;;2.92;1.13;;;;;;;;;;5033263;28;20075;-63
2022/06/25 07:01:53;;;;;;;3.70;1.50;;;;;;;;;;5033451;28;20033;-63
2022/06/25 07:04:20;;;;;;;3.40;1.25;;;;;;;;;;5032479;28;20119;-63
2022/06/25 07:06:47;;;;;;;2.45;1.33;;;;;;;;;;5033445;28;20471;-63
2022/06/25 07:09:14;;;;;;;2.80;1.23;;;;;;;;;;5032662;28;20026;-63
2022/06/25 07:11:41;;;;;;;4.70;1.40;;;;;;;;;;5015402;28;20100;-63
2022/06/25 07:14:08;;;;;;;3.97;1.23;;;;;;;;;;5033397;28;20392;-63
2022/06/25 07:16:35;;;;;;;4.35;1.20;;;;;;;;;;5032486;28;20100;-63
2022/06/25 07:19:04;;;;;;;2.42;1.00;;;;;;;;;;5033118;28;20037;-63
2022/06/25 07:21:31;;;;;;;2.03;0.82;;;;;;;;;;5015450;28;20040;-63
2022/06/25 07:23:58;;;;;;;4.53;1.15;;;;;;;;;;5032248;28;20112;-63
2022/06/25 07:26:26;;;;;;;2.47;1.00;;;;;;;;;;5033007;28;20026;-63
2022/06/25 07:28:53;;;;;;;3.10;1.00;;;;;;;;;;5032386;28;20044;-63
2022/06/25 07:31:21;;;;;;;2.92;1.00;;;;;;;;;;5033144;28;20025;-63
2022/06/25 07:33:48;;;;;;;3.45;0.90;;;;;;;;;;5032400;28;20056;-63
2022/06/25 07:36:15;;;;;;;1.67;0.82;;;;;;;;;;5032227;28;20404;-63
2022/06/25 07:38:42;;;;;;;2.50;1.10;;;;;;;;;;5032424;28;20021;-63
2022/06/25 07:41:09;;;;;;;3.00;0.93;;;;;;;;;;5032676;28;20403;-63
2022/06/25 07:43:35;;;;;;;2.58;0.80;;;;;;;;;;5031742;28;20479;-63
2022/06/25 07:46:04;;;;;;;2.28;1.08;;;;;;;;;;5032475;28;20057;-63
2022/06/25 07:48:31;;;;;;;1.95;0.88;;;;;;;;;;5032238;28;20393;-63
2022/06/25 07:53:43;;;;;;;2.15;0.90;;;;;;;;;;5032661;28;20044;-63
2022/06/25 07:56:10;;;;;;;3.22;1.00;;;;;;;;;;5032353;28;20037;-63
2022/06/25 07:58:37;;;;;;;3.30;0.93;;;;;;;;;;5031858;28;20026;-63
2022/06/25 08:01:04;;;;;;;2.60;0.95;;;;;;;;;;5031999;28;20096;-63
2022/06/25 08:03:31;;;;;;;2.55;0.85;;;;;;;;;;5031911;28;20037;-63
2022/06/25 08:05:59;;;;;;;2.28;0.90;;;;;;;;;;5031862;28;20468;-63
2022/06/25 08:08:26;;;;;;;3.15;1.00;;;;;;;;;;5032103;28;20018;-63
2022/06/25 08:10:53;;;;;;;2.03;0.90;;;;;;;;;;5032368;28;20132;-63
2022/06/25 08:13:21;;;;;;;2.50;0.98;;;;;;;;;;5031563;28;20022;-63
2022/06/25 08:15:48;;;;;;;1.48;0.90;;;;;;;;;;5031712;28;20030;-63
2022/06/25 08:18:15;;;;;;;4.40;1.27;;;;;;;;;;5032129;28;20032;-63
2022/06/25 08:20:42;;;;;;;2.15;0.93;;;;;;;;;;5031401;28;20035;-63
2022/06/25 08:23:09;;;;;;;1.38;0.88;;;;;;;;;;5014243;28;20118;-63
2022/06/25 08:25:35;;;;;;;2.55;0.80;;;;;;;;;;5031163;28;20029;-63
2022/06/25 08:28:02;;;;;;;1.60;0.65;;;;;;;;;;5032030;28;20033;-63
2022/06/25 08:30:29;;;;;;;2.63;0.90;;;;;;;;;;5031351;28;20033;-63
2022/06/25 08:32:56;;;;;;;2.50;0.90;;;;;;;;;;5031428;28;20479;-63
2022/06/25 08:35:23;;;;;;;2.65;0.90;;;;;;;;;;5032154;28;20387;-63
2022/06/25 08:37:51;;;;;;;3.33;0.80;;;;;;;;;;5031837;28;20026;-63
2022/06/25 08:40:19;;;;;;;2.58;0.82;;;;;;;;;;5031137;28;20499;-63
2022/06/25 08:42:49;;;;;;;1.15;0.60;;;;;;;;;;5031936;28;20033;-63
2022/06/25 08:45:17;;;;;;;1.55;0.80;;;;;;;;;;5031865;28;20061;-63
2022/06/25 08:47:45;;;;;;;1.25;0.60;;;;;;;;;;5030894;28;20391;-63
2022/06/25 08:50:16;;;;;;;1.40;0.70;;;;;;;;;;5032173;28;20025;-63
2022/06/25 08:52:50;;;;;;;0.90;0.60;;;;;;;;;;5031913;28;20494;-63
2022/06/25 08:55:30;;;;;;;2.75;0.73;;;;;;;;;;5031295;28;20101;-63
2022/06/25 08:57:58;;;;;;;1.27;0.60;;;;;;;;;;5031982;28;20495;-63
2022/06/25 09:00:25;;;;;;;1.33;0.85;;;;;;;;;;5031088;28;20427;-63
2022/06/25 09:02:52;;;;;;;1.38;0.60;;;;;;;;;;5034059;28;20075;-63
2022/06/25 09:05:30;;;;;;;2.35;0.77;;;;;;;;;;5035409;28;20033;-63
2022/06/25 09:07:57;;;;;;;1.20;0.50;;;;;;;;;;5035193;28;20029;-62
2022/06/25 09:10:25;;;;;;;1.45;0.63;;;;;;;;;;5034779;28;20056;-63
2022/06/25 09:12:53;;;;;;;1.40;0.60;;;;;;;;;;5034884;28;20030;-63
2022/06/25 09:15:24;;;;;;;1.10;0.60;;;;;;;;;;5035467;28;20104;-63
2022/06/25 09:17:52;;;;;;;1.43;0.50;;;;;;;;;;5034786;28;20079;-63
2022/06/25 09:20:20;;;;;;;2.75;0.50;;;;;;;;;;5035505;28;20108;-63
2022/06/25 09:22:57;;;;;;;1.13;0.55;;;;;;;;;;5034429;28;20437;-63
2022/06/25 09:25:25;;;;;;;2.63;0.65;;;;;;;;;;5035303;28;20041;-63
2022/06/25 09:27:52;;;;;;;1.30;0.60;;;;;;;;;;5034628;28;20021;-62
2022/06/25 09:30:20;;;;;;;1.90;0.60;;;;;;;;;;5035105;28;20049;-63
2022/06/25 09:32:51;;;;;;;1.40;0.65;;;;;;;;;;5034673;28;20052;-63
2022/06/25 09:35:32;;;;;;;1.65;0.70;;;;;;;;;;5034593;28;20087;-63
2022/06/25 09:38:06;;;;;;;1.75;0.90;;;;;;;;;;5034996;28;20044;-63
2022/06/25 09:40:33;;;;;;;2.42;0.70;;;;;;;;;;5032475;28;20529;-63
2022/06/25 09:43:01;;;;;;;6.50;0.80;;;;;;;;;;5016868;28;20166;-63
2022/06/25 09:45:28;;;;;;;1.30;0.75;;;;;;;;;;5035033;28;20065;-63
2022/06/25 09:47:56;;;;;;;1.15;0.57;;;;;;;;;;5017024;28;20068;-63
2022/06/25 09:50:23;;;;;;;0.80;0.55;;;;;;;;;;5034022;28;20558;-63
2022/06/25 09:52:59;;;;;;;1.52;0.80;;;;;;;;;;5034408;28;20033;-63
2022/06/25 09:55:30;;;;;;;0.95;0.50;;;;;;;;;;5034598;28;20064;-62
2022/06/25 09:58:00;;;;;;;0.95;0.47;;;;;;;;;;5034590;28;20390;-62
2022/06/25 10:00:27;;;;;;;1.10;0.70;;;;;;;;;;5034005;28;20033;-62
2022/06/25 10:02:56;;;;;;;0.70;0.50;;;;;;;;;;5034542;28;20037;-62
2022/06/25 10:05:30;;;;;;;1.25;0.50;;;;;;;;;;5034104;28;20041;-62
2022/06/25 10:08:01;;;;;;;1.38;0.68;;;;;;;;;;5033425;28;20045;-62
2022/06/25 10:10:30;;;;;;;4.38;0.77;;;;;;;;;;5034710;28;20075;-62
2022/06/25 10:12:57;;;;;;;2.05;0.77;;;;;;;;;;5034065;28;20483;-62
2022/06/25 10:15:24;;;;;;;1.27;0.50;;;;;;;;;;5033541;28;20399;-62
2022/06/25 10:17:52;;;;;;;1.10;0.68;;;;;;;;;;5033997;28;20072;-62
2022/06/25 10:20:19;;;;;;;1.27;0.63;;;;;;;;;;5015783;28;20087;-62
2022/06/25 10:22:47;;;;;;;1.45;0.50;;;;;;;;;;5033553;28;20067;-61
2022/06/25 10:25:21;;;;;;;0.85;0.50;;;;;;;;;;5033862;28;20566;-62
2022/06/25 10:27:49;;;;;;;1.75;0.60;;;;;;;;;;5033170;28;20092;-62
2022/06/25 10:30:35;;;;;;;1.35;0.60;;;;;;;;;;5034112;28;20115;-62
2022/06/25 10:33:02;;;;;;;3.40;1.30;;;;;;;;;;5033631;28;20045;-62
2022/06/25 10:35:33;;;;;;;1.35;0.50;;;;;;;;;;5033944;28;20105;-62
2022/06/25 10:38:02;;;;;;;1.48;0.60;;;;;;;;;;5033523;28;20047;-62
2022/06/25 10:40:47;;;;;;;2.42;0.68;;;;;;;;;;5033238;28;20127;-62
2022/06/25 10:43:32;;;;;;;2.30;0.70;;;;;;;;;;5033670;28;20493;-64
2022/06/25 10:45:59;;;;;;;0.65;0.40;;;;;;;;;;5033412;28;20029;-64
2022/06/25 10:48:27;;;;;;;0.82;0.47;;;;;;;;;;5033395;28;20021;-64
2022/06/25 10:50:55;;;;;;;0.80;0.55;;;;;;;;;;5033381;28;20476;-64
2022/06/25 10:53:23;;;;;;;0.95;0.50;;;;;;;;;;5033355;28;20105;-64
2022/06/25 10:55:50;;;;;;;1.30;0.52;;;;;;;;;;5032966;28;20021;-64
2022/06/25 10:58:21;;;;;;;1.67;0.57;;;;;;;;;;5033086;28;20026;-65
2022/06/25 11:00:59;;;;;;;1.08;0.63;;;;;;;;;;5041030;28;20120;-64
2022/06/25 11:03:32;;;;;;;2.17;0.60;;;;;;;;;;5052670;28;20037;-65
2022/06/25 11:06:00;;;;;;;0.28;0.20;;;;;;;;;;5051475;28;20069;-65
2022/06/25 11:08:34;;;;;;;1.05;0.55;;;;;;;;;;5053252;28;20035;-65
2022/06/25 11:11:01;;;;;;;1.92;0.60;;;;;;;;;;5053453;28;20036;-64
2022/06/25 11:13:28;;;;;;;0.73;0.40;;;;;;;;;;5052772;28;20056;-64
2022/06/25 11:15:55;;;;;;;1.45;0.60;;;;;;;;;;5052307;28;20025;-64
2022/06/25 11:18:22;;;;;;;0.93;0.40;;;;;;;;;;5053103;28;20025;-64
2022/06/25 12:09:58;;;;;;;14.07;3.40;;;;;;;;;;4949543;27;3935934;-61
2022/06/25 12:12:25;;;;;;;12.65;3.33;;;;;;;;;;5051449;28;20056;-61
2022/06/25 12:14:54;;;;;;;15.07;2.80;;;;;;;;;;5046488;28;20032;-61
2022/06/25 12:17:21;;;;;;;15.98;3.22;;;;;;;;;;5028383;28;20507;-61
2022/06/25 12:19:52;;;;;;;13.13;3.00;;;;;;;;;;5028571;28;20025;-61
2022/06/25 12:22:22;;;;;;;28.02;3.97;;;;;;;;;;5029413;28;20055;-61
2022/06/25 12:24:49;;;;;;;23.30;3.25;;;;;;;;;;5029321;28;20029;-61
2022/06/25 12:27:16;;;;;;;16.42;3.28;;;;;;;;;;5028723;28;20028;-61
2022/06/25 12:29:45;;;;;;;14.25;2.88;;;;;;;;;;5029296;28;20030;-61
2022/06/25 12:32:13;;;;;;;16.17;2.63;;;;;;;;;;5028465;28;20530;-60
2022/06/25 12:34:49;;;;;;;13.63;2.92;;;;;;;;;;5029330;28;20029;-61
2022/06/25 12:37:30;;;;;;;15.05;3.33;;;;;;;;;;5028938;28;20376;-61
2022/06/25 12:40:00;;;;;;;14.02;3.30;;;;;;;;;;5028373;28;20053;-60
2022/06/25 12:42:33;;;;;;;14.05;2.72;;;;;;;;;;5028751;28;20022;-61
2022/06/25 12:45:00;;;;;;;12.88;2.83;;;;;;;;;;5028663;28;20387;-61
2022/06/25 12:47:39;;;;;;;11.88;3.47;;;;;;;;;;5028519;28;20101;-61
2022/06/25 12:50:07;;;;;;;10.60;3.10;;;;;;;;;;5028361;28;20114;-60
2022/06/25 12:52:38;;;;;;;10.77;3.00;;;;;;;;;;5028848;28;20022;-61
2022/06/25 12:55:06;;;;;;;18.40;2.90;;;;;;;;;;5028005;28;20487;-61
2022/06/25 12:57:34;;;;;;;10.50;2.90;;;;;;;;;;5028781;28;20097;-61
2022/06/25 13:00:02;;;;;;;7.57;2.45;;;;;;;;;;5028268;28;20022;-60
2022/06/25 13:02:29;;;;;;;9.70;2.40;;;;;;;;;;5027877;28;20021;-61
2022/06/25 13:04:56;;;;;;;13.00;3.17;;;;;;;;;;5037896;28;20029;-61
2022/06/25 13:07:23;;;;;;;13.13;2.47;;;;;;;;;;5047444;28;20100;-61
2022/06/25 13:09:51;;;;;;;9.38;2.28;;;;;;;;;;5048299;28;20505;-60
2022/06/25 13:12:18;;;;;;;9.98;2.65;;;;;;;;;;5046025;28;20107;-61
2022/06/25 13:14:45;;;;;;;10.70;2.55;;;;;;;;;;5048389;28;20020;-61
2022/06/25 13:17:12;;;;;;;8.23;2.20;;;;;;;;;;5047512;28;20021;-61
2022/06/25 13:19:39;;;;;;;7.05;2.20;;;;;;;;;;5042427;28;20025;-61
2022/06/25 13:22:06;;;;;;;7.38;2.60;;;;;;;;;;5033891;28;20026;-60
2022/06/25 13:24:34;;;;;;;10.18;2.75;;;;;;;;;;5034947;28;20452;-61
2022/06/25 13:27:01;;;;;;;12.55;3.22;;;;;;;;;;5034351;28;20026;-61
2022/06/25 13:29:28;;;;;;;8.32;2.40;;;;;;;;;;5034366;28;20057;-61
2022/06/25 13:31:57;;;;;;;10.82;2.80;;;;;;;;;;5034758;28;20029;-61
2022/06/25 13:34:24;;;;;;;10.02;2.63;;;;;;;;;;5034138;28;20042;-61
2022/06/25 13:36:51;;;;;;;9.25;2.78;;;;;;;;;;5033726;28;20030;-61
2022/06/25 13:39:18;;;;;;;9.40;2.60;;;;;;;;;;5034586;28;20472;-60
2022/06/25 13:41:45;;;;;;;13.00;2.72;;;;;;;;;;5033866;28;20095;-61
2022/06/25 13:44:15;;;;;;;6.72;2.33;;;;;;;;;;5034551;28;20022;-61
2022/06/25 13:46:42;;;;;;;11.50;2.75;;;;;;;;;;5034210;28;20025;-61
2022/06/25 13:49:09;;;;;;;9.85;2.60;;;;;;;;;;5034109;28;20095;-61
2022/06/25 13:51:36;;;;;;;5.40;2.30;;;;;;;;;;5033826;28;20079;-61
2022/06/25 13:54:04;;;;;;;9.65;2.70;;;;;;;;;;5032201;28;20037;-60
2022/06/25 13:56:35;;;;;;;9.10;2.70;;;;;;;;;;5033967;28;20021;-61
2022/06/25 13:59:02;;;;;;;6.68;2.30;;;;;;;;;;5033817;28;20026;-60
2022/06/25 14:01:29;;;;;;;9.15;2.50;;;;;;;;;;5033196;28;20072;-61
2022/06/25 14:03:56;;;;;;;7.63;2.10;;;;;;;;;;5033470;28;20032;-61
2022/06/25 14:06:23;;;;;;;6.65;2.58;;;;;;;;;;5033955;28;20112;-60
2022/06/25 14:08:50;;;;;;;5.75;2.45;;;;;;;;;;5033936;28;20033;-61
2022/06/25 14:11:17;;;;;;;8.25;2.60;;;;;;;;;;5033203;28;20057;-60
2022/06/25 14:13:43;;;;;;;8.68;2.20;;;;;;;;;;5034002;28;20022;-61
2022/06/25 14:16:10;;;;;;;7.78;2.42;;;;;;;;;;5033189;28;20108;-60
2022/06/25 14:18:37;;;;;;;7.47;2.35;;;;;;;;;;5033674;28;20057;-62
2022/06/25 14:21:04;;;;;;;5.07;2.28;;;;;;;;;;5032503;28;20487;-61
2022/06/25 14:23:33;;;;;;;5.43;2.35;;;;;;;;;;5032963;28;20029;-61
2022/06/25 14:26:00;;;;;;;4.38;2.03;;;;;;;;;;5033614;28;20086;-61
2022/06/25 14:28:27;;;;;;;5.70;2.25;;;;;;;;;;5033314;28;20032;-61
2022/06/25 14:30:55;;;;;;;4.63;2.13;;;;;;;;;;5032333;28;20017;-61
2022/06/25 14:33:22;;;;;;;7.40;2.35;;;;;;;;;;5032340;28;20066;-61
2022/06/25 14:44:06;;;;;;;4.55;1.95;;;;;;;;;;5033689;28;20115;-61
2022/06/25 14:46:34;;;;;;;6.88;2.45;;;;;;;;;;5032283;28;20026;-61
2022/06/25 14:49:02;;;;;;;4.70;2.20;;;;;;;;;;5032389;28;20045;-61
2022/06/25 14:51:29;;;;;;;5.20;2.00;;;;;;;;;;5032854;28;20025;-60
2022/06/25 14:53:56;;;;;;;8.73;2.13;;;;;;;;;;5032395;28;20057;-62
2022/06/25 14:56:23;;;;;;;12.25;2.33;;;;;;;;;;5032742;28;20021;-63
2022/06/25 14:58:50;;;;;;;6.13;2.00;;;;;;;;;;5032872;28;20034;-63
2022/06/25 15:01:17;;;;;;;8.25;2.47;;;;;;;;;;5032614;28;20025;-63
2022/06/25 15:03:48;;;;;;;10.40;2.10;;;;;;;;;;5032594;28;20029;-63
2022/06/25 15:06:18;;;;;;;6.65;2.10;;;;;;;;;;5032108;28;20026;-63
2022/06/25 15:08:46;;;;;;;4.28;1.98;;;;;;;;;;5032542;28;20029;-63
2022/06/25 15:11:13;;;;;;;7.35;1.90;;;;;;;;;;5032167;28;20054;-64
2022/06/25 15:13:40;;;;;;;5.15;1.83;;;;;;;;;;5031054;28;20446;-63
2022/06/25 15:16:07;;;;;;;4.70;2.08;;;;;;;;;;5032543;28;20436;-63
2022/06/25 15:18:35;;;;;;;5.93;2.15;;;;;;;;;;5031445;28;20025;-63
2022/06/25 15:21:02;;;;;;;5.43;1.85;;;;;;;;;;5032415;28;20017;-62
2022/06/25 15:23:29;;;;;;;5.03;1.80;;;;;;;;;;5032441;28;20092;-62
2022/06/25 15:25:56;;;;;;;9.02;2.25;;;;;;;;;;5026506;28;20026;-65
2022/06/25 15:28:23;;;;;;;6.38;2.10;;;;;;;;;;5028947;28;20056;-63
2022/06/25 15:30:50;;;;;;;8.32;2.25;;;;;;;;;;5028229;28;20079;-63
2022/06/25 15:33:17;;;;;;;8.45;2.10;;;;;;;;;;5011386;28;20468;-62
2022/06/25 15:35:44;;;;;;;6.13;2.20;;;;;;;;;;5026066;28;20021;-63
2022/06/25 15:38:11;;;;;;;7.07;2.22;;;;;;;;;;5029759;28;20017;-64
2022/06/25 15:40:38;;;;;;;12.15;2.38;;;;;;;;;;5022966;28;20021;-63
2022/06/25 15:43:05;;;;;;;4.22;1.85;;;;;;;;;;5026712;28;20301;-62
2022/06/25 15:45:32;;;;;;;8.52;1.88;;;;;;;;;;5031251;28;20032;-63
2022/06/25 15:47:59;;;;;;;5.38;1.98;;;;;;;;;;5023932;28;20430;-62